sensor_id;sensor_type;location;lat;lon;timestamp;temperature;humidity
35633;DHT22;21754;48.216;-1.628;2022-07-21T00:00:04;22.40;99.90
35633;DHT22;21754;48.216;-1.628;2022-07-21T00:02:31;22.50;99.90
35633;DHT22;21754;48.216;-1.628;2022-07-21T00:04:57;22.50;99.90
35633;DHT22;21754;48.216;-1.628;2022-07-21T00:07:23;22.60;99.90
35633;DHT22;21754;48.216;-1.628;2022-07-21T00:09:48;22.60;99.90
35633;DHT22;21754;48.216;-1.628;2022-07-21T00:12:14;22.50;99.90
35633;DHT22;21754;48.216;-1.628;2022-07-21T00:14:39;22.50;99.90
35633;DHT22;21754;48.216;-1.628;2022-07-21T00:17:05;22.40;99.90
35633;DHT22;21754;48.216;-1.628;2022-07-21T00:19:31;22.40;99.90
35633;DHT22;21754;48.216;-1.628;2022-07-21T00:21:56;22.40;99.90
35633;DHT22;21754;48.216;-1.628;2022-07-21T00:24:22;22.40;99.90
35633;DHT22;21754;48.216;-1.628;2022-07-21T00:26:48;22.30;99.90
35633;DHT22;21754;48.216;-1.628;2022-07-21T00:29:13;22.20;99.90
35633;DHT22;21754;48.216;-1.628;2022-07-21T00:31:39;22.10;99.90
35633;DHT22;21754;48.216;-1.628;2022-07-21T00:34:05;22.00;99.90
35633;DHT22;21754;48.216;-1.628;2022-07-21T00:36:31;21.80;99.90
35633;DHT22;21754;48.216;-1.628;2022-07-21T00:38:56;21.70;99.90
35633;DHT22;21754;48.216;-1.628;2022-07-21T00:41:22;21.60;99.90
35633;DHT22;21754;48.216;-1.628;2022-07-21T00:43:48;21.50;99.90
35633;DHT22;21754;48.216;-1.628;2022-07-21T00:46:13;21.30;99.90
35633;DHT22;21754;48.216;-1.628;2022-07-21T00:48:39;21.10;99.90
35633;DHT22;21754;48.216;-1.628;2022-07-21T00:51:05;21.10;99.90
35633;DHT22;21754;48.216;-1.628;2022-07-21T00:53:31;21.20;99.90
35633;DHT22;21754;48.216;-1.628;2022-07-21T00:55:58;21.20;99.90
35633;DHT22;21754;48.216;-1.628;2022-07-21T00:58:24;21.30;99.90
35633;DHT22;21754;48.216;-1.628;2022-07-21T01:00:50;21.30;99.90
35633;DHT22;21754;48.216;-1.628;2022-07-21T01:03:16;21.30;99.90
35633;DHT22;21754;48.216;-1.628;2022-07-21T01:05:42;21.40;99.90
35633;DHT22;21754;48.216;-1.628;2022-07-21T01:08:07;21.40;99.90
35633;DHT22;21754;48.216;-1.628;2022-07-21T01:10:33;21.40;99.90
35633;DHT22;21754;48.216;-1.628;2022-07-21T01:13:00;21.40;99.90
35633;DHT22;21754;48.216;-1.628;2022-07-21T01:15:26;21.40;99.90
35633;DHT22;21754;48.216;-1.628;2022-07-21T01:17:52;21.40;99.90
35633;DHT22;21754;48.216;-1.628;2022-07-21T01:20:20;21.30;99.90
35633;DHT22;21754;48.216;-1.628;2022-07-21T01:22:49;21.30;99.90
35633;DHT22;21754;48.216;-1.628;2022-07-21T01:25:16;21.20;99.90
35633;DHT22;21754;48.216;-1.628;2022-07-21T01:27:42;21.20;99.90
35633;DHT22;21754;48.216;-1.628;2022-07-21T01:30:09;21.20;99.90
35633;DHT22;21754;48.216;-1.628;2022-07-21T01:32:36;21.30;99.90
35633;DHT22;21754;48.216;-1.628;2022-07-21T01:35:04;21.30;99.90
35633;DHT22;21754;48.216;-1.628;2022-07-21T01:37:31;21.40;99.90
35633;DHT22;21754;48.216;-1.628;2022-07-21T01:39:57;21.40;99.90
35633;DHT22;21754;48.216;-1.628;2022-07-21T01:42:41;21.40;99.90
35633;DHT22;21754;48.216;-1.628;2022-07-21T01:45:07;21.40;99.90
35633;DHT22;21754;48.216;-1.628;2022-07-21T01:47:33;21.30;99.90
35633;DHT22;21754;48.216;-1.628;2022-07-21T01:49:59;21.30;99.90
35633;DHT22;21754;48.216;-1.628;2022-07-21T01:52:24;21.20;99.90
35633;DHT22;21754;48.216;-1.628;2022-07-21T01:54:50;21.20;99.90
35633;DHT22;21754;48.216;-1.628;2022-07-21T01:57:16;21.20;99.90
35633;DHT22;21754;48.216;-1.628;2022-07-21T01:59:42;21.20;99.90
35633;DHT22;21754;48.216;-1.628;2022-07-21T02:02:08;21.10;99.90
35633;DHT22;21754;48.216;-1.628;2022-07-21T02:04:34;21.10;99.90
35633;DHT22;21754;48.216;-1.628;2022-07-21T02:07:01;21.10;99.90
35633;DHT22;21754;48.216;-1.628;2022-07-21T02:09:27;21.20;99.90
35633;DHT22;21754;48.216;-1.628;2022-07-21T02:11:53;21.20;99.90
35633;DHT22;21754;48.216;-1.628;2022-07-21T02:14:18;21.20;99.90
35633;DHT22;21754;48.216;-1.628;2022-07-21T02:16:44;21.20;99.90
35633;DHT22;21754;48.216;-1.628;2022-07-21T02:19:10;21.20;99.90
35633;DHT22;21754;48.216;-1.628;2022-07-21T02:21:36;21.20;99.90
35633;DHT22;21754;48.216;-1.628;2022-07-21T02:24:01;21.20;99.90
35633;DHT22;21754;48.216;-1.628;2022-07-21T02:26:27;21.20;99.90
35633;DHT22;21754;48.216;-1.628;2022-07-21T02:28:53;21.10;99.90
35633;DHT22;21754;48.216;-1.628;2022-07-21T02:31:19;21.10;99.90
35633;DHT22;21754;48.216;-1.628;2022-07-21T02:33:44;21.10;99.90
35633;DHT22;21754;48.216;-1.628;2022-07-21T02:36:10;21.00;99.90
35633;DHT22;21754;48.216;-1.628;2022-07-21T02:38:36;21.00;99.90
35633;DHT22;21754;48.216;-1.628;2022-07-21T02:41:01;20.90;99.90
35633;DHT22;21754;48.216;-1.628;2022-07-21T02:43:27;20.80;99.90
35633;DHT22;21754;48.216;-1.628;2022-07-21T02:45:53;20.70;99.90
35633;DHT22;21754;48.216;-1.628;2022-07-21T02:48:19;20.60;99.90
35633;DHT22;21754;48.216;-1.628;2022-07-21T02:50:44;20.60;99.90
35633;DHT22;21754;48.216;-1.628;2022-07-21T02:53:12;20.50;99.90
35633;DHT22;21754;48.216;-1.628;2022-07-21T02:55:40;20.50;99.90
35633;DHT22;21754;48.216;-1.628;2022-07-21T02:58:19;20.40;99.90
35633;DHT22;21754;48.216;-1.628;2022-07-21T03:00:55;20.40;99.90
35633;DHT22;21754;48.216;-1.628;2022-07-21T03:03:22;20.40;99.90
35633;DHT22;21754;48.216;-1.628;2022-07-21T03:05:49;20.30;99.90
35633;DHT22;21754;48.216;-1.628;2022-07-21T03:08:15;20.30;99.90
35633;DHT22;21754;48.216;-1.628;2022-07-21T03:10:42;20.30;99.90
35633;DHT22;21754;48.216;-1.628;2022-07-21T03:13:08;20.30;99.90
35633;DHT22;21754;48.216;-1.628;2022-07-21T03:15:34;20.30;99.90
35633;DHT22;21754;48.216;-1.628;2022-07-21T03:18:00;20.30;99.90
35633;DHT22;21754;48.216;-1.628;2022-07-21T03:20:28;20.30;99.90
35633;DHT22;21754;48.216;-1.628;2022-07-21T03:22:54;20.30;99.90
35633;DHT22;21754;48.216;-1.628;2022-07-21T03:25:20;20.30;99.90
35633;DHT22;21754;48.216;-1.628;2022-07-21T03:27:46;20.20;99.90
35633;DHT22;21754;48.216;-1.628;2022-07-21T03:30:13;20.10;99.90
35633;DHT22;21754;48.216;-1.628;2022-07-21T03:32:40;20.10;99.90
35633;DHT22;21754;48.216;-1.628;2022-07-21T03:35:07;20.00;99.90
35633;DHT22;21754;48.216;-1.628;2022-07-21T03:37:44;20.00;99.90
35633;DHT22;21754;48.216;-1.628;2022-07-21T03:40:12;19.90;99.90
35633;DHT22;21754;48.216;-1.628;2022-07-21T03:42:37;19.90;99.90
35633;DHT22;21754;48.216;-1.628;2022-07-21T03:45:03;19.80;99.90
35633;DHT22;21754;48.216;-1.628;2022-07-21T03:47:29;19.80;99.90
35633;DHT22;21754;48.216;-1.628;2022-07-21T03:49:55;19.90;99.90
35633;DHT22;21754;48.216;-1.628;2022-07-21T03:52:20;20.00;99.90
35633;DHT22;21754;48.216;-1.628;2022-07-21T03:54:46;20.20;99.90
35633;DHT22;21754;48.216;-1.628;2022-07-21T03:57:12;20.30;99.90
35633;DHT22;21754;48.216;-1.628;2022-07-21T03:59:37;20.40;99.90
35633;DHT22;21754;48.216;-1.628;2022-07-21T04:02:03;20.50;99.90
35633;DHT22;21754;48.216;-1.628;2022-07-21T04:04:28;20.50;99.90
35633;DHT22;21754;48.216;-1.628;2022-07-21T04:06:54;20.60;99.90
35633;DHT22;21754;48.216;-1.628;2022-07-21T04:09:20;20.70;99.90
35633;DHT22;21754;48.216;-1.628;2022-07-21T04:11:45;20.70;99.90
35633;DHT22;21754;48.216;-1.628;2022-07-21T04:14:11;20.60;99.90
35633;DHT22;21754;48.216;-1.628;2022-07-21T04:16:36;20.60;99.90
35633;DHT22;21754;48.216;-1.628;2022-07-21T04:19:02;20.60;99.90
35633;DHT22;21754;48.216;-1.628;2022-07-21T04:21:28;20.50;99.90
35633;DHT22;21754;48.216;-1.628;2022-07-21T04:23:53;20.30;99.90
35633;DHT22;21754;48.216;-1.628;2022-07-21T04:26:19;20.20;99.90
35633;DHT22;21754;48.216;-1.628;2022-07-21T04:28:45;20.10;99.90
35633;DHT22;21754;48.216;-1.628;2022-07-21T04:31:10;20.00;99.90
35633;DHT22;21754;48.216;-1.628;2022-07-21T04:33:36;19.90;99.90
35633;DHT22;21754;48.216;-1.628;2022-07-21T04:36:01;19.90;99.90
35633;DHT22;21754;48.216;-1.628;2022-07-21T04:38:27;19.90;99.90
35633;DHT22;21754;48.216;-1.628;2022-07-21T04:40:53;19.90;99.90
35633;DHT22;21754;48.216;-1.628;2022-07-21T04:43:18;19.90;99.90
35633;DHT22;21754;48.216;-1.628;2022-07-21T04:45:44;20.00;99.90
35633;DHT22;21754;48.216;-1.628;2022-07-21T04:48:09;20.10;99.90
35633;DHT22;21754;48.216;-1.628;2022-07-21T04:50:36;20.10;99.90
35633;DHT22;21754;48.216;-1.628;2022-07-21T04:53:02;20.10;99.90
35633;DHT22;21754;48.216;-1.628;2022-07-21T04:55:27;20.20;99.90
35633;DHT22;21754;48.216;-1.628;2022-07-21T04:57:53;20.20;99.90
35633;DHT22;21754;48.216;-1.628;2022-07-21T05:00:21;20.10;99.90
35633;DHT22;21754;48.216;-1.628;2022-07-21T05:02:47;20.10;99.90
35633;DHT22;21754;48.216;-1.628;2022-07-21T05:05:13;20.10;99.90
35633;DHT22;21754;48.216;-1.628;2022-07-21T05:07:39;20.00;99.90
35633;DHT22;21754;48.216;-1.628;2022-07-21T05:10:06;20.00;99.90
35633;DHT22;21754;48.216;-1.628;2022-07-21T05:12:32;20.00;99.90
35633;DHT22;21754;48.216;-1.628;2022-07-21T05:14:58;20.00;99.90
35633;DHT22;21754;48.216;-1.628;2022-07-21T05:17:24;20.00;99.90
35633;DHT22;21754;48.216;-1.628;2022-07-21T05:19:49;20.00;99.90
35633;DHT22;21754;48.216;-1.628;2022-07-21T05:22:16;20.10;99.90
35633;DHT22;21754;48.216;-1.628;2022-07-21T05:24:42;20.10;99.90
35633;DHT22;21754;48.216;-1.628;2022-07-21T05:27:08;20.20;99.90
35633;DHT22;21754;48.216;-1.628;2022-07-21T05:29:34;20.20;99.90
35633;DHT22;21754;48.216;-1.628;2022-07-21T05:32:00;20.10;99.90
35633;DHT22;21754;48.216;-1.628;2022-07-21T05:34:25;20.20;99.90
35633;DHT22;21754;48.216;-1.628;2022-07-21T05:36:51;20.20;99.90
35633;DHT22;21754;48.216;-1.628;2022-07-21T05:39:18;20.20;99.90
35633;DHT22;21754;48.216;-1.628;2022-07-21T05:41:44;20.30;99.90
35633;DHT22;21754;48.216;-1.628;2022-07-21T05:44:10;20.30;99.90
35633;DHT22;21754;48.216;-1.628;2022-07-21T05:46:35;20.30;99.90
35633;DHT22;21754;48.216;-1.628;2022-07-21T05:49:01;20.30;99.90
35633;DHT22;21754;48.216;-1.628;2022-07-21T05:51:26;20.40;99.90
35633;DHT22;21754;48.216;-1.628;2022-07-21T05:53:52;20.50;99.90
35633;DHT22;21754;48.216;-1.628;2022-07-21T05:56:18;20.60;99.90
35633;DHT22;21754;48.216;-1.628;2022-07-21T05:58:43;20.70;99.90
35633;DHT22;21754;48.216;-1.628;2022-07-21T06:01:09;20.90;99.90
35633;DHT22;21754;48.216;-1.628;2022-07-21T06:03:36;20.90;99.90
35633;DHT22;21754;48.216;-1.628;2022-07-21T06:06:03;21.00;99.90
35633;DHT22;21754;48.216;-1.628;2022-07-21T06:08:29;21.10;99.90
35633;DHT22;21754;48.216;-1.628;2022-07-21T06:10:54;21.10;99.90
35633;DHT22;21754;48.216;-1.628;2022-07-21T06:13:20;21.20;99.90
35633;DHT22;21754;48.216;-1.628;2022-07-21T06:15:46;21.30;99.90
35633;DHT22;21754;48.216;-1.628;2022-07-21T06:18:11;21.40;99.90
35633;DHT22;21754;48.216;-1.628;2022-07-21T06:20:37;21.50;99.90
35633;DHT22;21754;48.216;-1.628;2022-07-21T06:23:03;21.60;99.90
35633;DHT22;21754;48.216;-1.628;2022-07-21T06:25:28;21.70;99.90
35633;DHT22;21754;48.216;-1.628;2022-07-21T06:27:54;21.70;99.90
35633;DHT22;21754;48.216;-1.628;2022-07-21T06:30:20;21.70;99.90
35633;DHT22;21754;48.216;-1.628;2022-07-21T06:32:45;21.70;99.90
35633;DHT22;21754;48.216;-1.628;2022-07-21T06:35:11;21.70;99.90
35633;DHT22;21754;48.216;-1.628;2022-07-21T06:37:37;21.80;99.90
35633;DHT22;21754;48.216;-1.628;2022-07-21T06:40:03;21.80;99.90
35633;DHT22;21754;48.216;-1.628;2022-07-21T06:42:29;21.90;99.90
35633;DHT22;21754;48.216;-1.628;2022-07-21T06:44:54;22.00;99.90
35633;DHT22;21754;48.216;-1.628;2022-07-21T06:47:20;22.00;99.90
35633;DHT22;21754;48.216;-1.628;2022-07-21T06:49:46;22.00;99.90
35633;DHT22;21754;48.216;-1.628;2022-07-21T06:52:12;22.20;99.90
35633;DHT22;21754;48.216;-1.628;2022-07-21T06:54:38;22.30;99.90
35633;DHT22;21754;48.216;-1.628;2022-07-21T06:57:04;22.30;99.90
35633;DHT22;21754;48.216;-1.628;2022-07-21T06:59:31;22.40;99.90
35633;DHT22;21754;48.216;-1.628;2022-07-21T07:01:57;22.60;99.90
35633;DHT22;21754;48.216;-1.628;2022-07-21T07:04:24;22.80;99.90
35633;DHT22;21754;48.216;-1.628;2022-07-21T07:06:50;22.90;99.90
35633;DHT22;21754;48.216;-1.628;2022-07-21T07:48:20;22.90;99.90
35633;DHT22;21754;48.216;-1.628;2022-07-21T07:50:46;24.00;99.90
35633;DHT22;21754;48.216;-1.628;2022-07-21T07:53:12;24.00;99.90
35633;DHT22;21754;48.216;-1.628;2022-07-21T07:55:37;24.20;99.90
35633;DHT22;21754;48.216;-1.628;2022-07-21T07:58:03;24.30;99.90
35633;DHT22;21754;48.216;-1.628;2022-07-21T08:00:29;24.30;99.90
35633;DHT22;21754;48.216;-1.628;2022-07-21T08:02:54;24.40;99.90
35633;DHT22;21754;48.216;-1.628;2022-07-21T08:05:20;24.30;99.90
35633;DHT22;21754;48.216;-1.628;2022-07-21T08:07:45;24.20;99.90
35633;DHT22;21754;48.216;-1.628;2022-07-21T08:10:12;24.20;99.90
35633;DHT22;21754;48.216;-1.628;2022-07-21T08:12:40;24.20;99.90
35633;DHT22;21754;48.216;-1.628;2022-07-21T08:15:06;24.20;99.90
35633;DHT22;21754;48.216;-1.628;2022-07-21T08:17:32;24.20;99.90
35633;DHT22;21754;48.216;-1.628;2022-07-21T08:19:58;24.30;99.90
35633;DHT22;21754;48.216;-1.628;2022-07-21T08:22:24;24.40;99.90
35633;DHT22;21754;48.216;-1.628;2022-07-21T08:24:50;24.40;99.90
35633;DHT22;21754;48.216;-1.628;2022-07-21T08:27:16;24.40;99.90
35633;DHT22;21754;48.216;-1.628;2022-07-21T08:29:42;24.50;99.90
35633;DHT22;21754;48.216;-1.628;2022-07-21T08:32:07;24.50;99.90
35633;DHT22;21754;48.216;-1.628;2022-07-21T08:34:33;24.50;99.90
35633;DHT22;21754;48.216;-1.628;2022-07-21T08:36:59;24.60;99.90
35633;DHT22;21754;48.216;-1.628;2022-07-21T08:39:24;24.70;99.90
35633;DHT22;21754;48.216;-1.628;2022-07-21T08:41:51;24.90;99.90
35633;DHT22;21754;48.216;-1.628;2022-07-21T08:44:17;25.00;99.90
35633;DHT22;21754;48.216;-1.628;2022-07-21T08:46:42;25.00;99.90
35633;DHT22;21754;48.216;-1.628;2022-07-21T08:49:11;25.10;99.90
35633;DHT22;21754;48.216;-1.628;2022-07-21T08:51:37;25.30;99.90
35633;DHT22;21754;48.216;-1.628;2022-07-21T08:54:03;24.90;99.90
35633;DHT22;21754;48.216;-1.628;2022-07-21T08:56:29;24.70;99.90
35633;DHT22;21754;48.216;-1.628;2022-07-21T08:58:55;24.30;99.90
35633;DHT22;21754;48.216;-1.628;2022-07-21T09:01:21;24.50;99.90
35633;DHT22;21754;48.216;-1.628;2022-07-21T09:03:51;24.60;99.90
35633;DHT22;21754;48.216;-1.628;2022-07-21T09:06:16;24.70;99.90
35633;DHT22;21754;48.216;-1.628;2022-07-21T09:08:45;24.80;99.90
35633;DHT22;21754;48.216;-1.628;2022-07-21T09:11:15;24.90;99.90
35633;DHT22;21754;48.216;-1.628;2022-07-21T09:13:42;25.00;99.90
35633;DHT22;21754;48.216;-1.628;2022-07-21T09:16:09;25.30;99.90
35633;DHT22;21754;48.216;-1.628;2022-07-21T09:18:47;25.50;99.90
35633;DHT22;21754;48.216;-1.628;2022-07-21T09:21:15;25.70;99.90
35633;DHT22;21754;48.216;-1.628;2022-07-21T09:23:41;25.90;99.90
35633;DHT22;21754;48.216;-1.628;2022-07-21T09:26:07;26.00;99.90
35633;DHT22;21754;48.216;-1.628;2022-07-21T09:28:33;26.00;99.90
35633;DHT22;21754;48.216;-1.628;2022-07-21T09:33:29;26.20;99.90
35633;DHT22;21754;48.216;-1.628;2022-07-21T09:36:06;26.30;99.90
35633;DHT22;21754;48.216;-1.628;2022-07-21T09:38:43;26.10;99.90
35633;DHT22;21754;48.216;-1.628;2022-07-21T09:41:14;26.10;99.90
35633;DHT22;21754;48.216;-1.628;2022-07-21T09:43:42;26.10;99.90
35633;DHT22;21754;48.216;-1.628;2022-07-21T10:38:32;26.30;99.90
35633;DHT22;21754;48.216;-1.628;2022-07-21T10:41:00;26.80;99.90
35633;DHT22;21754;48.216;-1.628;2022-07-21T10:45:53;26.60;99.90
35633;DHT22;21754;48.216;-1.628;2022-07-21T10:51:13;26.90;99.90
35633;DHT22;21754;48.216;-1.628;2022-07-21T10:53:40;27.00;99.90
35633;DHT22;21754;48.216;-1.628;2022-07-21T10:56:07;27.20;99.90
35633;DHT22;21754;48.216;-1.628;2022-07-21T10:58:42;27.30;99.90
35633;DHT22;21754;48.216;-1.628;2022-07-21T11:01:24;27.00;99.90
35633;DHT22;21754;48.216;-1.628;2022-07-21T11:04:10;26.90;99.90
35633;DHT22;21754;48.216;-1.628;2022-07-21T11:06:40;27.00;99.90
35633;DHT22;21754;48.216;-1.628;2022-07-21T11:09:11;27.10;99.90
35633;DHT22;21754;48.216;-1.628;2022-07-21T11:14:37;27.00;99.90
35633;DHT22;21754;48.216;-1.628;2022-07-21T11:17:03;27.00;99.90
35633;DHT22;21754;48.216;-1.628;2022-07-21T11:24:33;27.30;99.90
35633;DHT22;21754;48.216;-1.628;2022-07-21T11:29:28;27.70;99.90
35633;DHT22;21754;48.216;-1.628;2022-07-21T11:31:55;27.80;99.90
35633;DHT22;21754;48.216;-1.628;2022-07-21T11:34:23;27.90;99.90
35633;DHT22;21754;48.216;-1.628;2022-07-21T11:36:59;28.00;99.90
35633;DHT22;21754;48.216;-1.628;2022-07-21T11:39:24;28.10;99.90
35633;DHT22;21754;48.216;-1.628;2022-07-21T11:41:50;28.20;99.90
35633;DHT22;21754;48.216;-1.628;2022-07-21T11:44:23;28.30;99.90
35633;DHT22;21754;48.216;-1.628;2022-07-21T11:46:51;28.30;99.90
35633;DHT22;21754;48.216;-1.628;2022-07-21T11:49:17;28.40;99.90
35633;DHT22;21754;48.216;-1.628;2022-07-21T11:51:51;28.50;99.90
35633;DHT22;21754;48.216;-1.628;2022-07-21T11:54:43;28.60;99.90
35633;DHT22;21754;48.216;-1.628;2022-07-21T11:57:11;28.60;99.90
35633;DHT22;21754;48.216;-1.628;2022-07-21T11:59:38;28.60;99.90
35633;DHT22;21754;48.216;-1.628;2022-07-21T12:02:26;28.70;99.90
35633;DHT22;21754;48.216;-1.628;2022-07-21T12:05:03;28.90;99.90
35633;DHT22;21754;48.216;-1.628;2022-07-21T12:07:41;29.00;99.90
35633;DHT22;21754;48.216;-1.628;2022-07-21T12:10:20;29.00;99.90
35633;DHT22;21754;48.216;-1.628;2022-07-21T12:12:47;29.10;99.90
35633;DHT22;21754;48.216;-1.628;2022-07-21T12:17:51;29.00;99.90
35633;DHT22;21754;48.216;-1.628;2022-07-21T12:20:35;29.20;99.90
35633;DHT22;21754;48.216;-1.628;2022-07-21T12:23:22;29.50;99.90
35633;DHT22;21754;48.216;-1.628;2022-07-21T12:25:49;29.70;99.90
35633;DHT22;21754;48.216;-1.628;2022-07-21T12:28:15;29.70;99.90
35633;DHT22;21754;48.216;-1.628;2022-07-21T12:30:42;29.90;99.90
35633;DHT22;21754;48.216;-1.628;2022-07-21T12:33:11;30.20;99.90
35633;DHT22;21754;48.216;-1.628;2022-07-21T12:35:40;30.30;99.90
35633;DHT22;21754;48.216;-1.628;2022-07-21T12:38:16;30.40;95.60
35633;DHT22;21754;48.216;-1.628;2022-07-21T12:40:47;30.30;97.90
35633;DHT22;21754;48.216;-1.628;2022-07-21T12:43:19;30.30;97.90
35633;DHT22;21754;48.216;-1.628;2022-07-21T12:48:25;30.50;97.50
35633;DHT22;21754;48.216;-1.628;2022-07-21T12:53:26;30.80;97.30
35633;DHT22;21754;48.216;-1.628;2022-07-21T12:55:52;30.90;94.10
35633;DHT22;21754;48.216;-1.628;2022-07-21T12:58:18;30.60;95.70
35633;DHT22;21754;48.216;-1.628;2022-07-21T13:00:43;30.40;93.10
35633;DHT22;21754;48.216;-1.628;2022-07-21T13:03:09;30.20;92.30
35633;DHT22;21754;48.216;-1.628;2022-07-21T13:05:35;29.90;92.20
35633;DHT22;21754;48.216;-1.628;2022-07-21T13:08:00;29.90;93.70
35633;DHT22;21754;48.216;-1.628;2022-07-21T13:10:26;29.80;94.70
35633;DHT22;21754;48.216;-1.628;2022-07-21T13:12:52;29.90;94.60
35633;DHT22;21754;48.216;-1.628;2022-07-21T13:15:18;30.00;95.00
35633;DHT22;21754;48.216;-1.628;2022-07-21T13:17:44;30.10;94.10
35633;DHT22;21754;48.216;-1.628;2022-07-21T13:20:10;30.20;94.50
35633;DHT22;21754;48.216;-1.628;2022-07-21T13:22:36;30.20;94.10
35633;DHT22;21754;48.216;-1.628;2022-07-21T13:25:03;30.00;92.70
35633;DHT22;21754;48.216;-1.628;2022-07-21T13:27:29;29.70;91.20
35633;DHT22;21754;48.216;-1.628;2022-07-21T13:29:54;29.50;93.00
35633;DHT22;21754;48.216;-1.628;2022-07-21T13:32:20;29.60;93.90
35633;DHT22;21754;48.216;-1.628;2022-07-21T13:34:46;29.60;92.40
35633;DHT22;21754;48.216;-1.628;2022-07-21T13:37:11;29.40;90.70
35633;DHT22;21754;48.216;-1.628;2022-07-21T13:39:38;28.90;92.10
35633;DHT22;21754;48.216;-1.628;2022-07-21T13:42:05;28.80;92.40
35633;DHT22;21754;48.216;-1.628;2022-07-21T13:44:31;28.80;93.10
35633;DHT22;21754;48.216;-1.628;2022-07-21T13:46:57;29.00;93.00
35633;DHT22;21754;48.216;-1.628;2022-07-21T13:49:23;29.20;92.70
35633;DHT22;21754;48.216;-1.628;2022-07-21T13:51:48;29.40;92.90
35633;DHT22;21754;48.216;-1.628;2022-07-21T13:54:14;29.70;93.20
35633;DHT22;21754;48.216;-1.628;2022-07-21T13:56:40;29.90;93.60
35633;DHT22;21754;48.216;-1.628;2022-07-21T13:59:06;30.00;92.70
35633;DHT22;21754;48.216;-1.628;2022-07-21T14:01:31;30.20;93.50
35633;DHT22;21754;48.216;-1.628;2022-07-21T14:03:57;30.40;91.40
35633;DHT22;21754;48.216;-1.628;2022-07-21T14:06:23;30.30;91.50
35633;DHT22;21754;48.216;-1.628;2022-07-21T14:08:49;30.30;91.90
35633;DHT22;21754;48.216;-1.628;2022-07-21T14:11:15;30.30;92.80
35633;DHT22;21754;48.216;-1.628;2022-07-21T14:13:41;30.50;92.40
35633;DHT22;21754;48.216;-1.628;2022-07-21T14:16:07;30.70;91.70
35633;DHT22;21754;48.216;-1.628;2022-07-21T14:18:33;30.70;91.40
35633;DHT22;21754;48.216;-1.628;2022-07-21T14:20:59;30.80;91.20
35633;DHT22;21754;48.216;-1.628;2022-07-21T14:23:25;31.00;92.10
35633;DHT22;21754;48.216;-1.628;2022-07-21T14:25:52;30.90;90.80
35633;DHT22;21754;48.216;-1.628;2022-07-21T14:28:18;30.80;86.10
35633;DHT22;21754;48.216;-1.628;2022-07-21T14:30:43;30.70;88.40
35633;DHT22;21754;48.216;-1.628;2022-07-21T14:33:09;30.70;90.00
35633;DHT22;21754;48.216;-1.628;2022-07-21T14:35:35;30.70;90.20
35633;DHT22;21754;48.216;-1.628;2022-07-21T14:38:01;30.70;90.60
35633;DHT22;21754;48.216;-1.628;2022-07-21T14:40:28;30.90;90.90
35633;DHT22;21754;48.216;-1.628;2022-07-21T14:42:53;31.00;90.60
35633;DHT22;21754;48.216;-1.628;2022-07-21T14:45:21;31.10;90.80
35633;DHT22;21754;48.216;-1.628;2022-07-21T14:47:47;31.10;90.00
35633;DHT22;21754;48.216;-1.628;2022-07-21T14:50:14;31.10;90.60
35633;DHT22;21754;48.216;-1.628;2022-07-21T14:52:41;31.10;88.10
35633;DHT22;21754;48.216;-1.628;2022-07-21T14:55:08;31.00;90.00
35633;DHT22;21754;48.216;-1.628;2022-07-21T14:57:34;31.20;90.50
35633;DHT22;21754;48.216;-1.628;2022-07-21T15:00:00;31.20;89.70
35633;DHT22;21754;48.216;-1.628;2022-07-21T15:02:25;31.40;90.10
35633;DHT22;21754;48.216;-1.628;2022-07-21T15:04:51;31.50;86.40
35633;DHT22;21754;48.216;-1.628;2022-07-21T15:07:17;31.50;82.90
35633;DHT22;21754;48.216;-1.628;2022-07-21T15:09:43;31.60;83.50
35633;DHT22;21754;48.216;-1.628;2022-07-21T15:12:09;31.70;86.90
35633;DHT22;21754;48.216;-1.628;2022-07-21T15:14:36;31.90;79.70
35633;DHT22;21754;48.216;-1.628;2022-07-21T15:17:02;31.90;81.40
35633;DHT22;21754;48.216;-1.628;2022-07-21T15:19:28;31.90;83.70
35633;DHT22;21754;48.216;-1.628;2022-07-21T15:21:53;31.80;85.00
35633;DHT22;21754;48.216;-1.628;2022-07-21T15:24:19;32.10;86.20
35633;DHT22;21754;48.216;-1.628;2022-07-21T15:26:45;32.10;82.30
35633;DHT22;21754;48.216;-1.628;2022-07-21T15:29:11;31.90;79.10
35633;DHT22;21754;48.216;-1.628;2022-07-21T15:31:37;31.70;81.30
35633;DHT22;21754;48.216;-1.628;2022-07-21T15:34:03;31.60;83.60
35633;DHT22;21754;48.216;-1.628;2022-07-21T15:36:29;31.60;82.00
35633;DHT22;21754;48.216;-1.628;2022-07-21T15:38:56;31.80;86.30
35633;DHT22;21754;48.216;-1.628;2022-07-21T15:41:25;31.90;85.20
35633;DHT22;21754;48.216;-1.628;2022-07-21T15:43:51;32.10;86.60
35633;DHT22;21754;48.216;-1.628;2022-07-21T15:46:16;32.30;83.10
35633;DHT22;21754;48.216;-1.628;2022-07-21T15:48:42;32.30;81.60
35633;DHT22;21754;48.216;-1.628;2022-07-21T15:51:08;32.40;83.30
35633;DHT22;21754;48.216;-1.628;2022-07-21T15:53:34;32.60;84.70
35633;DHT22;21754;48.216;-1.628;2022-07-21T15:56:04;32.80;82.20
35633;DHT22;21754;48.216;-1.628;2022-07-21T15:58:30;32.90;80.60
35633;DHT22;21754;48.216;-1.628;2022-07-21T16:00:57;32.70;80.80
35633;DHT22;21754;48.216;-1.628;2022-07-21T16:03:23;32.30;80.70
35633;DHT22;21754;48.216;-1.628;2022-07-21T16:05:49;31.90;83.00
35633;DHT22;21754;48.216;-1.628;2022-07-21T16:08:15;31.80;87.20
35633;DHT22;21754;48.216;-1.628;2022-07-21T16:10:41;32.00;88.20
35633;DHT22;21754;48.216;-1.628;2022-07-21T16:13:07;31.80;85.30
35633;DHT22;21754;48.216;-1.628;2022-07-21T16:15:33;31.50;86.90
35633;DHT22;21754;48.216;-1.628;2022-07-21T16:17:59;31.20;87.50
35633;DHT22;21754;48.216;-1.628;2022-07-21T16:20:25;30.90;87.70
35633;DHT22;21754;48.216;-1.628;2022-07-21T16:22:55;30.60;89.30
35633;DHT22;21754;48.216;-1.628;2022-07-21T16:25:23;30.50;89.80
35633;DHT22;21754;48.216;-1.628;2022-07-21T16:27:49;30.70;90.60
35633;DHT22;21754;48.216;-1.628;2022-07-21T16:30:16;30.90;90.20
35633;DHT22;21754;48.216;-1.628;2022-07-21T16:32:44;31.00;90.10
35633;DHT22;21754;48.216;-1.628;2022-07-21T16:35:10;31.10;90.40
35633;DHT22;21754;48.216;-1.628;2022-07-21T16:37:45;31.30;88.40
35633;DHT22;21754;48.216;-1.628;2022-07-21T16:40:11;31.40;88.40
35633;DHT22;21754;48.216;-1.628;2022-07-21T16:42:37;31.40;88.80
35633;DHT22;21754;48.216;-1.628;2022-07-21T16:45:04;31.50;89.40
35633;DHT22;21754;48.216;-1.628;2022-07-21T16:47:30;31.70;86.70
35633;DHT22;21754;48.216;-1.628;2022-07-21T16:49:56;31.60;85.50
35633;DHT22;21754;48.216;-1.628;2022-07-21T16:52:21;31.40;86.00
35633;DHT22;21754;48.216;-1.628;2022-07-21T16:54:47;31.30;86.10
35633;DHT22;21754;48.216;-1.628;2022-07-21T16:57:13;31.30;86.90
35633;DHT22;21754;48.216;-1.628;2022-07-21T16:59:38;31.40;88.00
35633;DHT22;21754;48.216;-1.628;2022-07-21T17:02:04;31.80;88.60
35633;DHT22;21754;48.216;-1.628;2022-07-21T17:04:30;31.60;85.60
35633;DHT22;21754;48.216;-1.628;2022-07-21T17:06:56;31.40;86.80
35633;DHT22;21754;48.216;-1.628;2022-07-21T17:09:22;31.20;86.80